sensor_id;sensor_type;location;lat;lon;timestamp;P1;durP1;ratioP1;P2;durP2;ratioP2
85035;SDS011;75357;49.780;9.448;2024-01-16T00:00:02;5.27;;;2.50;;
85035;SDS011;75357;49.780;9.448;2024-01-16T00:02:33;6.03;;;2.67;;
85035;SDS011;75357;49.780;9.448;2024-01-16T00:05:02;7.03;;;2.57;;
85035;SDS011;75357;49.780;9.448;2024-01-16T00:07:31;6.40;;;2.43;;
85035;SDS011;75357;49.780;9.448;2024-01-16T00:10:02;5.07;;;2.47;;
85035;SDS011;75357;49.780;9.448;2024-01-16T00:12:33;7.00;;;2.30;;
85035;SDS011;75357;49.780;9.448;2024-01-16T00:15:04;5.47;;;2.67;;
85035;SDS011;75357;49.780;9.448;2024-01-16T00:17:33;6.30;;;2.63;;
85035;SDS011;75357;49.780;9.448;2024-01-16T00:20:02;3.70;;;2.63;;
85035;SDS011;75357;49.780;9.448;2024-01-16T00:22:32;4.13;;;2.43;;
85035;SDS011;75357;49.780;9.448;2024-01-16T00:25:00;4.87;;;2.57;;
85035;SDS011;75357;49.780;9.448;2024-01-16T00:27:29;5.57;;;2.60;;
85035;SDS011;75357;49.780;9.448;2024-01-16T00:29:59;4.13;;;2.17;;
85035;SDS011;75357;49.780;9.448;2024-01-16T00:32:28;4.00;;;2.70;;
85035;SDS011;75357;49.780;9.448;2024-01-16T00:34:56;3.77;;;1.53;;
85035;SDS011;75357;49.780;9.448;2024-01-16T00:37:25;5.97;;;3.13;;
85035;SDS011;75357;49.780;9.448;2024-01-16T00:39:54;4.90;;;2.10;;
85035;SDS011;75357;49.780;9.448;2024-01-16T00:42:22;3.63;;;2.17;;
85035;SDS011;75357;49.780;9.448;2024-01-16T00:44:51;3.37;;;2.00;;
85035;SDS011;75357;49.780;9.448;2024-01-16T00:47:21;5.60;;;3.20;;
85035;SDS011;75357;49.780;9.448;2024-01-16T00:49:49;5.40;;;2.30;;
85035;SDS011;75357;49.780;9.448;2024-01-16T00:52:18;3.33;;;2.30;;
85035;SDS011;75357;49.780;9.448;2024-01-16T00:54:46;3.47;;;1.90;;
85035;SDS011;75357;49.780;9.448;2024-01-16T00:57:15;4.60;;;2.63;;
85035;SDS011;75357;49.780;9.448;2024-01-16T00:59:46;5.47;;;2.80;;
85035;SDS011;75357;49.780;9.448;2024-01-16T01:02:15;5.27;;;2.37;;
85035;SDS011;75357;49.780;9.448;2024-01-16T01:04:45;5.33;;;3.00;;
85035;SDS011;75357;49.780;9.448;2024-01-16T01:07:14;4.73;;;2.70;;
85035;SDS011;75357;49.780;9.448;2024-01-16T01:09:43;3.60;;;2.73;;
85035;SDS011;75357;49.780;9.448;2024-01-16T01:12:12;6.13;;;2.50;;
85035;SDS011;75357;49.780;9.448;2024-01-16T01:14:41;3.23;;;2.30;;
85035;SDS011;75357;49.780;9.448;2024-01-16T01:17:09;3.70;;;2.13;;
85035;SDS011;75357;49.780;9.448;2024-01-16T01:19:39;3.37;;;2.33;;
85035;SDS011;75357;49.780;9.448;2024-01-16T01:22:10;3.80;;;2.90;;
85035;SDS011;75357;49.780;9.448;2024-01-16T01:24:39;7.70;;;2.83;;
85035;SDS011;75357;49.780;9.448;2024-01-16T01:27:07;5.20;;;2.97;;
85035;SDS011;75357;49.780;9.448;2024-01-16T01:29:36;5.13;;;3.40;;
85035;SDS011;75357;49.780;9.448;2024-01-16T01:32:05;4.40;;;2.77;;
85035;SDS011;75357;49.780;9.448;2024-01-16T01:34:34;4.40;;;2.47;;
85035;SDS011;75357;49.780;9.448;2024-01-16T01:37:03;5.33;;;2.97;;
85035;SDS011;75357;49.780;9.448;2024-01-16T01:39:33;4.73;;;2.17;;
85035;SDS011;75357;49.780;9.448;2024-01-16T01:42:02;4.57;;;2.83;;
85035;SDS011;75357;49.780;9.448;2024-01-16T01:44:31;2.90;;;2.27;;
85035;SDS011;75357;49.780;9.448;2024-01-16T01:46:59;3.47;;;2.60;;
85035;SDS011;75357;49.780;9.448;2024-01-16T01:49:30;5.93;;;3.10;;
85035;SDS011;75357;49.780;9.448;2024-01-16T01:51:59;3.67;;;2.40;;
85035;SDS011;75357;49.780;9.448;2024-01-16T01:54:28;3.70;;;2.77;;
85035;SDS011;75357;49.780;9.448;2024-01-16T01:56:58;4.37;;;2.97;;
85035;SDS011;75357;49.780;9.448;2024-01-16T01:59:27;6.60;;;3.73;;
85035;SDS011;75357;49.780;9.448;2024-01-16T02:01:57;4.17;;;2.67;;
85035;SDS011;75357;49.780;9.448;2024-01-16T02:04:27;6.17;;;3.00;;
85035;SDS011;75357;49.780;9.448;2024-01-16T02:06:57;6.87;;;2.53;;
85035;SDS011;75357;49.780;9.448;2024-01-16T02:09:26;4.47;;;2.97;;
85035;SDS011;75357;49.780;9.448;2024-01-16T02:11:55;5.37;;;2.93;;
85035;SDS011;75357;49.780;9.448;2024-01-16T02:14:25;4.57;;;2.70;;
85035;SDS011;75357;49.780;9.448;2024-01-16T02:16:53;5.97;;;3.70;;
85035;SDS011;75357;49.780;9.448;2024-01-16T02:19:22;5.13;;;3.20;;
85035;SDS011;75357;49.780;9.448;2024-01-16T02:21:52;4.50;;;1.93;;
85035;SDS011;75357;49.780;9.448;2024-01-16T02:24:28;4.27;;;2.80;;
85035;SDS011;75357;49.780;9.448;2024-01-16T02:26:57;4.80;;;3.43;;
85035;SDS011;75357;49.780;9.448;2024-01-16T02:29:26;9.00;;;4.20;;
85035;SDS011;75357;49.780;9.448;2024-01-16T02:31:54;4.40;;;3.20;;
85035;SDS011;75357;49.780;9.448;2024-01-16T02:34:23;4.93;;;3.23;;
85035;SDS011;75357;49.780;9.448;2024-01-16T02:36:52;12.03;;;3.63;;
85035;SDS011;75357;49.780;9.448;2024-01-16T02:39:20;6.03;;;4.10;;
85035;SDS011;75357;49.780;9.448;2024-01-16T02:41:50;7.47;;;4.00;;
85035;SDS011;75357;49.780;9.448;2024-01-16T02:44:19;4.40;;;3.03;;
85035;SDS011;75357;49.780;9.448;2024-01-16T02:46:47;4.40;;;2.97;;
85035;SDS011;75357;49.780;9.448;2024-01-16T02:49:16;5.50;;;3.20;;
85035;SDS011;75357;49.780;9.448;2024-01-16T02:51:44;6.13;;;3.53;;
85035;SDS011;75357;49.780;9.448;2024-01-16T02:54:13;8.20;;;3.77;;
85035;SDS011;75357;49.780;9.448;2024-01-16T02:56:42;6.73;;;4.10;;
85035;SDS011;75357;49.780;9.448;2024-01-16T02:59:12;6.57;;;3.03;;
85035;SDS011;75357;49.780;9.448;2024-01-16T03:01:41;5.63;;;3.73;;
85035;SDS011;75357;49.780;9.448;2024-01-16T03:04:09;5.77;;;3.47;;
85035;SDS011;75357;49.780;9.448;2024-01-16T03:06:38;3.73;;;3.00;;
85035;SDS011;75357;49.780;9.448;2024-01-16T03:09:07;7.57;;;3.37;;
85035;SDS011;75357;49.780;9.448;2024-01-16T03:11:35;5.03;;;3.10;;
85035;SDS011;75357;49.780;9.448;2024-01-16T03:14:04;5.93;;;3.60;;
85035;SDS011;75357;49.780;9.448;2024-01-16T03:16:35;7.53;;;3.67;;
85035;SDS011;75357;49.780;9.448;2024-01-16T03:19:03;4.47;;;2.83;;
85035;SDS011;75357;49.780;9.448;2024-01-16T03:21:32;7.33;;;3.83;;
85035;SDS011;75357;49.780;9.448;2024-01-16T03:24:00;9.00;;;3.90;;
85035;SDS011;75357;49.780;9.448;2024-01-16T03:26:29;8.23;;;4.10;;
85035;SDS011;75357;49.780;9.448;2024-01-16T03:28:59;5.73;;;4.43;;
85035;SDS011;75357;49.780;9.448;2024-01-16T03:31:27;5.00;;;2.77;;
85035;SDS011;75357;49.780;9.448;2024-01-16T03:33:58;5.03;;;3.63;;
85035;SDS011;75357;49.780;9.448;2024-01-16T03:36:26;13.03;;;3.27;;
85035;SDS011;75357;49.780;9.448;2024-01-16T03:38:56;6.57;;;3.33;;
85035;SDS011;75357;49.780;9.448;2024-01-16T03:41:24;7.17;;;3.53;;
85035;SDS011;75357;49.780;9.448;2024-01-16T03:43:53;6.13;;;3.37;;
85035;SDS011;75357;49.780;9.448;2024-01-16T03:46:23;7.90;;;4.17;;
85035;SDS011;75357;49.780;9.448;2024-01-16T03:48:52;8.53;;;4.07;;
85035;SDS011;75357;49.780;9.448;2024-01-16T03:51:22;8.00;;;4.63;;
85035;SDS011;75357;49.780;9.448;2024-01-16T03:53:51;11.47;;;4.40;;
85035;SDS011;75357;49.780;9.448;2024-01-16T03:56:20;6.87;;;4.03;;
85035;SDS011;75357;49.780;9.448;2024-01-16T03:58:50;7.47;;;4.20;;
85035;SDS011;75357;49.780;9.448;2024-01-16T04:01:20;11.27;;;4.20;;
85035;SDS011;75357;49.780;9.448;2024-01-16T04:03:57;9.20;;;4.80;;
85035;SDS011;75357;49.780;9.448;2024-01-16T04:06:29;9.23;;;4.33;;
85035;SDS011;75357;49.780;9.448;2024-01-16T04:08:58;7.17;;;4.20;;
85035;SDS011;75357;49.780;9.448;2024-01-16T04:11:27;5.93;;;3.83;;
85035;SDS011;75357;49.780;9.448;2024-01-16T04:13:57;7.57;;;4.03;;
85035;SDS011;75357;49.780;9.448;2024-01-16T04:16:25;5.67;;;3.93;;
85035;SDS011;75357;49.780;9.448;2024-01-16T04:18:53;6.47;;;3.87;;
85035;SDS011;75357;49.780;9.448;2024-01-16T04:21:22;7.03;;;3.93;;
85035;SDS011;75357;49.780;9.448;2024-01-16T04:23:53;7.77;;;4.10;;
85035;SDS011;75357;49.780;9.448;2024-01-16T04:26:21;10.67;;;4.47;;
85035;SDS011;75357;49.780;9.448;2024-01-16T04:28:51;9.63;;;4.00;;
85035;SDS011;75357;49.780;9.448;2024-01-16T04:31:20;6.23;;;3.87;;
85035;SDS011;75357;49.780;9.448;2024-01-16T04:33:49;8.17;;;3.77;;
85035;SDS011;75357;49.780;9.448;2024-01-16T04:36:18;7.00;;;3.77;;
85035;SDS011;75357;49.780;9.448;2024-01-16T04:38:47;9.43;;;4.20;;
85035;SDS011;75357;49.780;9.448;2024-01-16T04:41:18;7.10;;;4.00;;
85035;SDS011;75357;49.780;9.448;2024-01-16T04:43:47;5.53;;;3.27;;
85035;SDS011;75357;49.780;9.448;2024-01-16T04:46:17;7.80;;;4.40;;
85035;SDS011;75357;49.780;9.448;2024-01-16T04:48:45;10.03;;;4.47;;
85035;SDS011;75357;49.780;9.448;2024-01-16T04:51:15;5.90;;;3.73;;
85035;SDS011;75357;49.780;9.448;2024-01-16T04:53:44;6.37;;;3.50;;
85035;SDS011;75357;49.780;9.448;2024-01-16T04:56:13;6.37;;;3.70;;
85035;SDS011;75357;49.780;9.448;2024-01-16T04:58:43;8.47;;;3.83;;
85035;SDS011;75357;49.780;9.448;2024-01-16T05:01:11;8.00;;;4.20;;
85035;SDS011;75357;49.780;9.448;2024-01-16T05:03:40;3.53;;;2.53;;
85035;SDS011;75357;49.780;9.448;2024-01-16T05:06:12;9.07;;;3.90;;
85035;SDS011;75357;49.780;9.448;2024-01-16T05:08:43;9.43;;;4.10;;
85035;SDS011;75357;49.780;9.448;2024-01-16T05:11:11;9.23;;;4.10;;
85035;SDS011;75357;49.780;9.448;2024-01-16T05:13:39;4.77;;;2.70;;
85035;SDS011;75357;49.780;9.448;2024-01-16T05:16:10;6.60;;;3.33;;
85035;SDS011;75357;49.780;9.448;2024-01-16T05:18:41;6.00;;;3.63;;
85035;SDS011;75357;49.780;9.448;2024-01-16T05:21:11;6.03;;;3.40;;
85035;SDS011;75357;49.780;9.448;2024-01-16T05:23:39;6.13;;;3.43;;
85035;SDS011;75357;49.780;9.448;2024-01-16T05:26:09;8.33;;;3.87;;
85035;SDS011;75357;49.780;9.448;2024-01-16T05:28:38;10.37;;;4.13;;
85035;SDS011;75357;49.780;9.448;2024-01-16T05:31:08;7.67;;;4.10;;
85035;SDS011;75357;49.780;9.448;2024-01-16T05:33:39;6.37;;;4.00;;
85035;SDS011;75357;49.780;9.448;2024-01-16T05:36:08;8.43;;;4.40;;
85035;SDS011;75357;49.780;9.448;2024-01-16T05:38:37;12.67;;;6.60;;
85035;SDS011;75357;49.780;9.448;2024-01-16T05:41:05;8.23;;;3.67;;
85035;SDS011;75357;49.780;9.448;2024-01-16T05:43:34;11.00;;;6.90;;
85035;SDS011;75357;49.780;9.448;2024-01-16T05:46:03;8.03;;;4.53;;
85035;SDS011;75357;49.780;9.448;2024-01-16T05:48:31;20.13;;;9.73;;
85035;SDS011;75357;49.780;9.448;2024-01-16T05:51:02;6.90;;;4.53;;
85035;SDS011;75357;49.780;9.448;2024-01-16T05:53:31;11.27;;;4.20;;
85035;SDS011;75357;49.780;9.448;2024-01-16T05:56:00;6.93;;;3.37;;
85035;SDS011;75357;49.780;9.448;2024-01-16T05:58:29;6.93;;;3.87;;
85035;SDS011;75357;49.780;9.448;2024-01-16T06:01:03;6.77;;;4.07;;
85035;SDS011;75357;49.780;9.448;2024-01-16T06:03:32;7.73;;;3.53;;
85035;SDS011;75357;49.780;9.448;2024-01-16T06:06:01;6.60;;;3.07;;
85035;SDS011;75357;49.780;9.448;2024-01-16T06:08:30;9.43;;;4.57;;
85035;SDS011;75357;49.780;9.448;2024-01-16T06:10:59;9.40;;;4.57;;
85035;SDS011;75357;49.780;9.448;2024-01-16T06:13:28;8.80;;;5.20;;
85035;SDS011;75357;49.780;9.448;2024-01-16T06:15:58;8.03;;;5.00;;
85035;SDS011;75357;49.780;9.448;2024-01-16T06:18:28;9.97;;;5.93;;
85035;SDS011;75357;49.780;9.448;2024-01-16T06:20:56;11.70;;;6.20;;
85035;SDS011;75357;49.780;9.448;2024-01-16T06:23:27;11.20;;;5.13;;
85035;SDS011;75357;49.780;9.448;2024-01-16T06:25:56;11.77;;;5.83;;
85035;SDS011;75357;49.780;9.448;2024-01-16T06:28:24;15.30;;;8.53;;
85035;SDS011;75357;49.780;9.448;2024-01-16T06:30:53;16.17;;;7.27;;
85035;SDS011;75357;49.780;9.448;2024-01-16T06:33:21;25.97;;;12.17;;
85035;SDS011;75357;49.780;9.448;2024-01-16T06:35:50;21.07;;;12.33;;
85035;SDS011;75357;49.780;9.448;2024-01-16T06:38:19;12.83;;;5.93;;
85035;SDS011;75357;49.780;9.448;2024-01-16T06:40:50;8.87;;;5.17;;
85035;SDS011;75357;49.780;9.448;2024-01-16T06:43:19;10.53;;;5.67;;
85035;SDS011;75357;49.780;9.448;2024-01-16T06:45:48;9.13;;;5.30;;
85035;SDS011;75357;49.780;9.448;2024-01-16T06:48:16;14.10;;;7.50;;
85035;SDS011;75357;49.780;9.448;2024-01-16T06:50:45;13.77;;;7.90;;
85035;SDS011;75357;49.780;9.448;2024-01-16T06:53:14;12.03;;;8.50;;
85035;SDS011;75357;49.780;9.448;2024-01-16T06:55:43;15.13;;;9.60;;
85035;SDS011;75357;49.780;9.448;2024-01-16T06:58:13;14.83;;;8.80;;
85035;SDS011;75357;49.780;9.448;2024-01-16T07:00:42;10.07;;;6.70;;
85035;SDS011;75357;49.780;9.448;2024-01-16T07:03:11;10.77;;;6.03;;
85035;SDS011;75357;49.780;9.448;2024-01-16T07:05:40;9.40;;;5.37;;
85035;SDS011;75357;49.780;9.448;2024-01-16T07:08:09;9.87;;;5.40;;
85035;SDS011;75357;49.780;9.448;2024-01-16T07:10:38;17.47;;;10.50;;
85035;SDS011;75357;49.780;9.448;2024-01-16T07:13:07;18.33;;;10.57;;
85035;SDS011;75357;49.780;9.448;2024-01-16T07:15:37;21.13;;;11.80;;
85035;SDS011;75357;49.780;9.448;2024-01-16T07:18:06;22.70;;;13.87;;
85035;SDS011;75357;49.780;9.448;2024-01-16T07:20:34;31.00;;;15.40;;
85035;SDS011;75357;49.780;9.448;2024-01-16T07:23:03;24.33;;;12.90;;
85035;SDS011;75357;49.780;9.448;2024-01-16T07:25:33;20.10;;;12.33;;
85035;SDS011;75357;49.780;9.448;2024-01-16T07:28:01;15.97;;;10.30;;
85035;SDS011;75357;49.780;9.448;2024-01-16T07:30:30;18.50;;;8.87;;
85035;SDS011;75357;49.780;9.448;2024-01-16T07:33:00;15.90;;;8.20;;
85035;SDS011;75357;49.780;9.448;2024-01-16T07:35:29;18.47;;;8.90;;
85035;SDS011;75357;49.780;9.448;2024-01-16T07:37:57;10.43;;;6.03;;
85035;SDS011;75357;49.780;9.448;2024-01-16T07:40:30;9.57;;;5.00;;
85035;SDS011;75357;49.780;9.448;2024-01-16T07:42:59;12.63;;;6.30;;
85035;SDS011;75357;49.780;9.448;2024-01-16T07:45:27;8.73;;;5.40;;
85035;SDS011;75357;49.780;9.448;2024-01-16T07:47:56;9.03;;;5.90;;
85035;SDS011;75357;49.780;9.448;2024-01-16T07:50:27;7.87;;;5.23;;
85035;SDS011;75357;49.780;9.448;2024-01-16T07:52:57;15.23;;;7.40;;
85035;SDS011;75357;49.780;9.448;2024-01-16T07:55:25;12.90;;;6.47;;
85035;SDS011;75357;49.780;9.448;2024-01-16T07:57:54;13.13;;;6.30;;
85035;SDS011;75357;49.780;9.448;2024-01-16T08:00:23;7.70;;;5.10;;
85035;SDS011;75357;49.780;9.448;2024-01-16T08:02:51;9.80;;;5.70;;
85035;SDS011;75357;49.780;9.448;2024-01-16T08:05:20;12.97;;;6.60;;
85035;SDS011;75357;49.780;9.448;2024-01-16T08:07:53;11.23;;;5.30;;
85035;SDS011;75357;49.780;9.448;2024-01-16T08:10:22;12.33;;;7.13;;
85035;SDS011;75357;49.780;9.448;2024-01-16T08:12:51;12.10;;;6.53;;
85035;SDS011;75357;49.780;9.448;2024-01-16T08:15:20;10.40;;;7.30;;
85035;SDS011;75357;49.780;9.448;2024-01-16T08:17:49;13.13;;;8.07;;
85035;SDS011;75357;49.780;9.448;2024-01-16T08:20:18;10.90;;;7.40;;
85035;SDS011;75357;49.780;9.448;2024-01-16T08:22:46;13.17;;;6.47;;
85035;SDS011;75357;49.780;9.448;2024-01-16T08:25:19;9.13;;;5.20;;
85035;SDS011;75357;49.780;9.448;2024-01-16T08:27:48;13.70;;;7.60;;
85035;SDS011;75357;49.780;9.448;2024-01-16T08:30:17;23.50;;;10.43;;
85035;SDS011;75357;49.780;9.448;2024-01-16T08:32:45;13.20;;;5.87;;
85035;SDS011;75357;49.780;9.448;2024-01-16T08:35:14;9.57;;;5.63;;
85035;SDS011;75357;49.780;9.448;2024-01-16T08:37:43;7.20;;;4.80;;
85035;SDS011;75357;49.780;9.448;2024-01-16T08:40:11;10.70;;;5.40;;
85035;SDS011;75357;49.780;9.448;2024-01-16T08:42:41;9.80;;;5.77;;
85035;SDS011;75357;49.780;9.448;2024-01-16T08:45:10;10.67;;;5.77;;
85035;SDS011;75357;49.780;9.448;2024-01-16T08:47:38;5.57;;;3.93;;
85035;SDS011;75357;49.780;9.448;2024-01-16T08:50:07;8.63;;;4.90;;
85035;SDS011;75357;49.780;9.448;2024-01-16T08:52:36;11.10;;;4.37;;
85035;SDS011;75357;49.780;9.448;2024-01-16T08:55:04;8.83;;;4.63;;
85035;SDS011;75357;49.780;9.448;2024-01-16T08:57:32;6.70;;;4.23;;
85035;SDS011;75357;49.780;9.448;2024-01-16T09:00:03;9.07;;;5.77;;
85035;SDS011;75357;49.780;9.448;2024-01-16T09:02:32;8.37;;;6.23;;
85035;SDS011;75357;49.780;9.448;2024-01-16T09:05:00;9.47;;;4.90;;
85035;SDS011;75357;49.780;9.448;2024-01-16T09:07:29;5.80;;;3.90;;
85035;SDS011;75357;49.780;9.448;2024-01-16T09:09:58;5.87;;;4.03;;
85035;SDS011;75357;49.780;9.448;2024-01-16T09:12:26;9.73;;;4.53;;
85035;SDS011;75357;49.780;9.448;2024-01-16T09:14:55;9.33;;;4.53;;
85035;SDS011;75357;49.780;9.448;2024-01-16T09:17:26;7.47;;;4.63;;
85035;SDS011;75357;49.780;9.448;2024-01-16T09:19:55;8.43;;;4.50;;
85035;SDS011;75357;49.780;9.448;2024-01-16T09:22:24;7.53;;;5.10;;
85035;SDS011;75357;49.780;9.448;2024-01-16T09:24:53;6.23;;;3.83;;
85035;SDS011;75357;49.780;9.448;2024-01-16T09:27:22;12.50;;;5.43;;
85035;SDS011;75357;49.780;9.448;2024-01-16T09:29:50;7.03;;;3.90;;
85035;SDS011;75357;49.780;9.448;2024-01-16T09:32:20;9.60;;;5.07;;
85035;SDS011;75357;49.780;9.448;2024-01-16T09:34:50;14.13;;;7.83;;
85035;SDS011;75357;49.780;9.448;2024-01-16T09:37:19;32.93;;;19.00;;
85035;SDS011;75357;49.780;9.448;2024-01-16T09:39:48;14.97;;;8.83;;
85035;SDS011;75357;49.780;9.448;2024-01-16T09:42:17;10.07;;;6.23;;
85035;SDS011;75357;49.780;9.448;2024-01-16T09:44:47;9.07;;;4.53;;
85035;SDS011;75357;49.780;9.448;2024-01-16T09:47:17;10.17;;;5.20;;
85035;SDS011;75357;49.780;9.448;2024-01-16T09:49:46;6.40;;;3.83;;
85035;SDS011;75357;49.780;9.448;2024-01-16T09:52:17;11.13;;;4.70;;
85035;SDS011;75357;49.780;9.448;2024-01-16T09:54:47;8.77;;;4.57;;
85035;SDS011;75357;49.780;9.448;2024-01-16T09:57:16;10.40;;;4.13;;
85035;SDS011;75357;49.780;9.448;2024-01-16T09:59:50;18.90;;;8.57;;
85035;SDS011;75357;49.780;9.448;2024-01-16T10:02:19;9.20;;;5.17;;
85035;SDS011;75357;49.780;9.448;2024-01-16T10:04:48;7.20;;;3.63;;
85035;SDS011;75357;49.780;9.448;2024-01-16T10:07:18;6.07;;;2.80;;
85035;SDS011;75357;49.780;9.448;2024-01-16T10:09:52;12.53;;;8.07;;
85035;SDS011;75357;49.780;9.448;2024-01-16T10:12:23;8.80;;;4.10;;
85035;SDS011;75357;49.780;9.448;2024-01-16T10:14:53;6.57;;;3.37;;
85035;SDS011;75357;49.780;9.448;2024-01-16T10:17:34;5.47;;;2.73;;
85035;SDS011;75357;49.780;9.448;2024-01-16T10:20:05;4.37;;;2.40;;
85035;SDS011;75357;49.780;9.448;2024-01-16T10:22:43;4.80;;;2.70;;
85035;SDS011;75357;49.780;9.448;2024-01-16T10:25:21;6.73;;;2.90;;
85035;SDS011;75357;49.780;9.448;2024-01-16T10:27:51;3.37;;;2.17;;
85035;SDS011;75357;49.780;9.448;2024-01-16T10:30:31;4.63;;;2.20;;
85035;SDS011;75357;49.780;9.448;2024-01-16T10:33:12;6.33;;;2.70;;
85035;SDS011;75357;49.780;9.448;2024-01-16T10:35:43;4.20;;;2.60;;
85035;SDS011;75357;49.780;9.448;2024-01-16T10:38:19;3.53;;;2.37;;
85035;SDS011;75357;49.780;9.448;2024-01-16T10:41:03;5.60;;;2.17;;
85035;SDS011;75357;49.780;9.448;2024-01-16T10:43:33;5.37;;;1.90;;
85035;SDS011;75357;49.780;9.448;2024-01-16T10:46:08;5.97;;;2.60;;
85035;SDS011;75357;49.780;9.448;2024-01-16T10:48:39;7.40;;;3.13;;
85035;SDS011;75357;49.780;9.448;2024-01-16T10:51:10;2.40;;;2.00;;
85035;SDS011;75357;49.780;9.448;2024-01-16T10:53:43;6.03;;;2.53;;
85035;SDS011;75357;49.780;9.448;2024-01-16T10:56:13;9.37;;;3.10;;
85035;SDS011;75357;49.780;9.448;2024-01-16T10:58:44;5.97;;;3.27;;
85035;SDS011;75357;49.780;9.448;2024-01-16T11:01:19;8.40;;;3.97;;
85035;SDS011;75357;49.780;9.448;2024-01-16T11:03:49;5.93;;;3.43;;
85035;SDS011;75357;49.780;9.448;2024-01-16T11:06:19;8.60;;;4.37;;
85035;SDS011;75357;49.780;9.448;2024-01-16T11:08:50;6.00;;;3.17;;
85035;SDS011;75357;49.780;9.448;2024-01-16T11:11:20;5.50;;;2.67;;
85035;SDS011;75357;49.780;9.448;2024-01-16T11:13:51;5.97;;;3.07;;
85035;SDS011;75357;49.780;9.448;2024-01-16T11:16:20;5.67;;;2.77;;
85035;SDS011;75357;49.780;9.448;2024-01-16T11:18:50;5.53;;;2.80;;
85035;SDS011;75357;49.780;9.448;2024-01-16T11:21:33;6.53;;;2.97;;
85035;SDS011;75357;49.780;9.448;2024-01-16T11:24:07;7.63;;;2.63;;
85035;SDS011;75357;49.780;9.448;2024-01-16T11:26:39;4.93;;;2.37;;
85035;SDS011;75357;49.780;9.448;2024-01-16T11:32:03;3.93;;;2.10;;
85035;SDS011;75357;49.780;9.448;2024-01-16T11:34:53;6.23;;;2.43;;
85035;SDS011;75357;49.780;9.448;2024-01-16T11:37:26;5.37;;;2.67;;
85035;SDS011;75357;49.780;9.448;2024-01-16T11:42:51;5.30;;;2.30;;
85035;SDS011;75357;49.780;9.448;2024-01-16T11:48:20;7.20;;;2.60;;
85035;SDS011;75357;49.780;9.448;2024-01-16T11:50:49;4.33;;;2.40;;
85035;SDS011;75357;49.780;9.448;2024-01-16T11:53:33;5.07;;;2.07;;
85035;SDS011;75357;49.780;9.448;2024-01-16T12:02:23;3.93;;;2.07;;
85035;SDS011;75357;49.780;9.448;2024-01-16T12:04:58;4.30;;;2.00;;
85035;SDS011;75357;49.780;9.448;2024-01-16T12:07:41;5.33;;;2.10;;
85035;SDS011;75357;49.780;9.448;2024-01-16T12:10:11;4.87;;;2.00;;
85035;SDS011;75357;49.780;9.448;2024-01-16T12:12:42;4.30;;;1.97;;
85035;SDS011;75357;49.780;9.448;2024-01-16T12:17:57;5.30;;;2.43;;
85035;SDS011;75357;49.780;9.448;2024-01-16T12:20:28;4.73;;;2.97;;
85035;SDS011;75357;49.780;9.448;2024-01-16T12:23:00;7.63;;;2.53;;
85035;SDS011;75357;49.780;9.448;2024-01-16T12:25:30;4.10;;;2.40;;
85035;SDS011;75357;49.780;9.448;2024-01-16T12:28:20;6.30;;;2.53;;
85035;SDS011;75357;49.780;9.448;2024-01-16T12:31:00;10.77;;;4.60;;
85035;SDS011;75357;49.780;9.448;2024-01-16T12:33:30;5.43;;;2.63;;
85035;SDS011;75357;49.780;9.448;2024-01-16T12:36:02;3.40;;;1.80;;
85035;SDS011;75357;49.780;9.448;2024-01-16T12:38:32;6.27;;;2.27;;
85035;SDS011;75357;49.780;9.448;2024-01-16T12:41:04;8.80;;;4.33;;
85035;SDS011;75357;49.780;9.448;2024-01-16T12:43:36;5.07;;;2.10;;
85035;SDS011;75357;49.780;9.448;2024-01-16T12:46:07;6.07;;;2.67;;
85035;SDS011;75357;49.780;9.448;2024-01-16T12:48:39;5.23;;;2.30;;
85035;SDS011;75357;49.780;9.448;2024-01-16T12:51:22;4.70;;;2.10;;
85035;SDS011;75357;49.780;9.448;2024-01-16T12:53:51;6.10;;;2.27;;
85035;SDS011;75357;49.780;9.448;2024-01-16T12:56:20;4.07;;;1.90;;
85035;SDS011;75357;49.780;9.448;2024-01-16T12:59:08;5.13;;;2.00;;
85035;SDS011;75357;49.780;9.448;2024-01-16T13:01:44;7.90;;;2.23;;
85035;SDS011;75357;49.780;9.448;2024-01-16T13:04:16;5.93;;;2.10;;
85035;SDS011;75357;49.780;9.448;2024-01-16T13:06:46;5.20;;;2.30;;
85035;SDS011;75357;49.780;9.448;2024-01-16T13:09:16;3.93;;;1.90;;
85035;SDS011;75357;49.780;9.448;2024-01-16T13:11:47;5.87;;;2.57;;
85035;SDS011;75357;49.780;9.448;2024-01-16T13:14:18;6.20;;;3.33;;
85035;SDS011;75357;49.780;9.448;2024-01-16T13:16:50;5.97;;;2.27;;
85035;SDS011;75357;49.780;9.448;2024-01-16T13:19:19;3.57;;;1.90;;
85035;SDS011;75357;49.780;9.448;2024-01-16T13:21:50;4.87;;;1.97;;
85035;SDS011;75357;49.780;9.448;2024-01-16T13:24:20;4.50;;;2.00;;
85035;SDS011;75357;49.780;9.448;2024-01-16T13:26:51;3.73;;;1.80;;
85035;SDS011;75357;49.780;9.448;2024-01-16T13:29:20;2.77;;;1.77;;
85035;SDS011;75357;49.780;9.448;2024-01-16T13:31:51;4.50;;;1.90;;
85035;SDS011;75357;49.780;9.448;2024-01-16T13:34:22;4.30;;;1.80;;
85035;SDS011;75357;49.780;9.448;2024-01-16T13:36:52;4.83;;;2.00;;
85035;SDS011;75357;49.780;9.448;2024-01-16T13:39:42;4.43;;;2.00;;
85035;SDS011;75357;49.780;9.448;2024-01-16T13:42:12;5.10;;;2.20;;
85035;SDS011;75357;49.780;9.448;2024-01-16T13:44:45;3.90;;;2.30;;
85035;SDS011;75357;49.780;9.448;2024-01-16T13:47:17;4.97;;;2.20;;
85035;SDS011;75357;49.780;9.448;2024-01-16T13:49:48;3.63;;;2.00;;
85035;SDS011;75357;49.780;9.448;2024-01-16T13:52:19;3.37;;;1.83;;
85035;SDS011;75357;49.780;9.448;2024-01-16T13:54:52;3.60;;;2.07;;
85035;SDS011;75357;49.780;9.448;2024-01-16T13:57:21;4.73;;;2.00;;
85035;SDS011;75357;49.780;9.448;2024-01-16T13:59:50;4.10;;;2.20;;
85035;SDS011;75357;49.780;9.448;2024-01-16T14:02:20;5.20;;;2.23;;
85035;SDS011;75357;49.780;9.448;2024-01-16T14:04:50;5.67;;;2.17;;
85035;SDS011;75357;49.780;9.448;2024-01-16T14:07:19;3.73;;;1.80;;
85035;SDS011;75357;49.780;9.448;2024-01-16T14:09:51;4.73;;;2.53;;
85035;SDS011;75357;49.780;9.448;2024-01-16T14:12:23;4.97;;;2.20;;
85035;SDS011;75357;49.780;9.448;2024-01-16T14:14:52;5.17;;;2.30;;
85035;SDS011;75357;49.780;9.448;2024-01-16T14:17:24;3.83;;;2.30;;
85035;SDS011;75357;49.780;9.448;2024-01-16T14:19:54;4.17;;;1.93;;
85035;SDS011;75357;49.780;9.448;2024-01-16T14:22:24;3.60;;;1.80;;
85035;SDS011;75357;49.780;9.448;2024-01-16T14:24:54;2.57;;;1.90;;
85035;SDS011;75357;49.780;9.448;2024-01-16T14:27:23;2.50;;;1.80;;
85035;SDS011;75357;49.780;9.448;2024-01-16T14:29:52;4.30;;;1.57;;
85035;SDS011;75357;49.780;9.448;2024-01-16T14:32:21;5.00;;;2.07;;
85035;SDS011;75357;49.780;9.448;2024-01-16T14:34:53;4.47;;;1.90;;
85035;SDS011;75357;49.780;9.448;2024-01-16T14:37:22;5.43;;;2.03;;
85035;SDS011;75357;49.780;9.448;2024-01-16T14:39:53;4.90;;;1.80;;
85035;SDS011;75357;49.780;9.448;2024-01-16T14:42:21;4.43;;;2.00;;
85035;SDS011;75357;49.780;9.448;2024-01-16T14:44:51;4.13;;;2.00;;
85035;SDS011;75357;49.780;9.448;2024-01-16T14:47:20;4.20;;;1.70;;
85035;SDS011;75357;49.780;9.448;2024-01-16T14:49:50;6.00;;;1.90;;
85035;SDS011;75357;49.780;9.448;2024-01-16T14:52:22;4.30;;;2.07;;
85035;SDS011;75357;49.780;9.448;2024-01-16T14:54:51;2.77;;;1.87;;
85035;SDS011;75357;49.780;9.448;2024-01-16T14:57:20;17.47;;;8.00;;
85035;SDS011;75357;49.780;9.448;2024-01-16T14:59:50;9.03;;;4.47;;
85035;SDS011;75357;49.780;9.448;2024-01-16T15:02:20;6.57;;;2.37;;
85035;SDS011;75357;49.780;9.448;2024-01-16T15:04:49;4.33;;;2.10;;
85035;SDS011;75357;49.780;9.448;2024-01-16T15:07:20;6.07;;;3.27;;
85035;SDS011;75357;49.780;9.448;2024-01-16T15:09:50;5.57;;;2.90;;
85035;SDS011;75357;49.780;9.448;2024-01-16T15:12:19;8.80;;;3.50;;
85035;SDS011;75357;49.780;9.448;2024-01-16T15:14:48;10.17;;;5.97;;
85035;SDS011;75357;49.780;9.448;2024-01-16T15:17:17;8.83;;;5.20;;
85035;SDS011;75357;49.780;9.448;2024-01-16T15:19:50;7.17;;;4.30;;